Northern Star — ZCXZ8 — position and weather

sailwx.info

Track history (hours):
 
Tides and Currents Weather Stations Pressure Air Temp Water Temp Dewpoint Dewpoint Depression Visibility Wind Speed Wind Dir Waves Ship Positions

Northern Star

Last reported at 2017-Sep-14 08:00 UTC. Time now 2017-Sep-22 22:30 UTC.
Position N 26°45' W 080°03'.
Warning: this ship's position is 8 days out of date.

Length 75 m; draft 3.8 m.

Type: Pleasure craft. MMSI: 319008900.

Date/timePositionNaut miles runAvg speedWind from/ knotsBaromVisibWave heightAir tempDewpointWater temp
2017-Sep-14 08:00N 26°45' W 080°03'3412.9
2017-Sep-14 05:22N 26°12' W 079°55'617.8
2017-Sep-14 05:00N 26°05' W 079°55'917.2
2017-Sep-14 04:30N 25°57' W 079°55'918.0
2017-Sep-14 04:00N 25°48' W 079°56'918.3
2017-Sep-14 03:30N 25°39' W 079°56'918.0
2017-Sep-14 03:00N 25°30' W 079°57'917.7
2017-Sep-14 02:29N 25°20' W 079°58'  
2017-Sep-07 21:16N 25°22' W 080°02'312.2
2017-Sep-07 21:00N 25°26' W 080°02'611.9
2017-Sep-07 20:31N 25°32' W 080°02'611.9
2017-Sep-07 20:01N 25°38' W 080°01'612.1
2017-Sep-07 19:30N 25°44' W 080°01'612.0
2017-Sep-07 19:00N 25°50' W 080°01'612.1
2017-Sep-07 18:30N 25°56' W 080°00'612.1
2017-Sep-07 18:00N 26°02' W 079°60'612.7
2017-Sep-07 17:30N 26°08' W 079°60'713.3
2017-Sep-07 17:00N 26°15' W 079°60'813.9
2017-Sep-07 16:27N 26°22' W 079°60'2313.8
2017-Sep-07 14:47N 26°45' W 079°59'310.3
2017-Sep-07 14:30N 26°46' W 080°02'1 0.1
2017-Sep-07 03:30N 26°45' W 080°03'0 0.0
2017-Sep-07 02:52N 26°45' W 080°03'  
Track history (hours):
 
Tides and Currents Weather Stations Pressure Air Temp Water Temp Dewpoint Dewpoint Depression Visibility Wind Speed Wind Dir Waves Ship Positions

Northern Star

Last reported at 2017-Sep-14 08:00 UTC. Time now 2017-Sep-22 22:30 UTC.
Position N 26°45' W 080°03'.
Warning: this ship's position is 8 days out of date.

Length 75 m; draft 3.8 m.

Type: Pleasure craft. MMSI: 319008900.

Date/timePositionNaut miles runAvg speedWind from/ knotsBaromVisibWave heightAir tempDewpointWater temp
2017-Sep-14 08:00N 26°45' W 080°03'3412.9
2017-Sep-14 05:22N 26°12' W 079°55'617.8
2017-Sep-14 05:00N 26°05' W 079°55'917.2
2017-Sep-14 04:30N 25°57' W 079°55'918.0
2017-Sep-14 04:00N 25°48' W 079°56'918.3
2017-Sep-14 03:30N 25°39' W 079°56'918.0
2017-Sep-14 03:00N 25°30' W 079°57'917.7
2017-Sep-14 02:29N 25°20' W 079°58'  
2017-Sep-07 21:16N 25°22' W 080°02'312.2
2017-Sep-07 21:00N 25°26' W 080°02'611.9
2017-Sep-07 20:31N 25°32' W 080°02'611.9
2017-Sep-07 20:01N 25°38' W 080°01'612.1
2017-Sep-07 19:30N 25°44' W 080°01'612.0
2017-Sep-07 19:00N 25°50' W 080°01'612.1
2017-Sep-07 18:30N 25°56' W 080°00'612.1
2017-Sep-07 18:00N 26°02' W 079°60'612.7
2017-Sep-07 17:30N 26°08' W 079°60'713.3
2017-Sep-07 17:00N 26°15' W 079°60'813.9
2017-Sep-07 16:27N 26°22' W 079°60'2313.8
2017-Sep-07 14:47N 26°45' W 079°59'310.3
2017-Sep-07 14:30N 26°46' W 080°02'1 0.1
2017-Sep-07 03:30N 26°45' W 080°03'0 0.0
2017-Sep-07 02:52N 26°45' W 080°03'  

Dump ship's entire track history